createdAt,value
2018-11-20T00:02:39.971Z,6.17
2018-11-20T00:05:47.232Z,3.73
2018-11-20T00:08:45.624Z,5.50
2018-11-20T00:11:52.946Z,5.33
2018-11-20T00:15:00.585Z,4.83
2018-11-20T00:18:08.180Z,6.77
2018-11-20T00:21:15.454Z,6.20
2018-11-20T00:24:12.181Z,4.87
2018-11-20T00:27:19.491Z,4.70
2018-11-20T00:30:26.836Z,7.00
2018-11-20T00:33:34.144Z,7.63
2018-11-20T00:36:41.725Z,6.60
2018-11-20T00:39:49.043Z,6.93
2018-11-20T00:42:56.658Z,7.60
2018-11-20T00:46:03.976Z,5.90
2018-11-20T00:48:52.592Z,6.20
2018-11-20T00:52:00.207Z,5.80
2018-11-20T00:55:07.511Z,5.67
2018-11-20T00:58:15.080Z,5.90
2018-11-20T01:01:22.446Z,3.10
2018-11-20T01:04:30.105Z,7.03
2018-11-20T01:07:37.853Z,5.40
2018-11-20T01:10:45.606Z,5.60
2018-11-20T01:13:53.178Z,5.67
2018-11-20T01:17:00.736Z,5.10
2018-11-20T01:20:08.036Z,5.60
2018-11-20T01:23:15.626Z,4.70
2018-11-20T01:26:22.980Z,4.07
2018-11-20T01:29:30.298Z,6.00
2018-11-20T01:32:37.855Z,7.00
2018-11-20T01:35:45.149Z,6.47
2018-11-20T01:38:52.746Z,5.73
2018-11-20T01:42:00.663Z,5.93
2018-11-20T01:45:08.314Z,7.53
2018-11-20T01:48:15.610Z,7.93
2018-11-20T01:51:23.027Z,6.63
2018-11-20T01:54:23.222Z,6.67
2018-11-20T01:57:31.157Z,5.93
2018-11-20T02:00:38.439Z,5.50
2018-11-20T02:03:45.999Z,7.40
2018-11-20T02:06:54.239Z,7.40
2018-11-20T02:10:01.538Z,6.23
2018-11-20T02:13:22.375Z,7.23
2018-11-20T02:16:29.632Z,6.90
2018-11-20T02:19:36.941Z,6.30
2018-11-20T02:22:44.552Z,5.73
2018-11-20T02:25:51.832Z,7.53
2018-11-20T02:28:59.415Z,5.63
2018-11-20T02:32:06.696Z,6.57
2018-11-20T02:35:14.303Z,6.77
2018-11-20T02:38:21.645Z,3.07
2018-11-20T02:41:29.176Z,7.60
2018-11-20T02:44:36.517Z,8.07
2018-11-20T02:47:44.090Z,6.33
2018-11-20T02:50:51.674Z,6.57
2018-11-20T02:53:58.963Z,7.97
2018-11-20T02:57:06.582Z,6.70
2018-11-20T03:00:06.430Z,7.47
2018-11-20T03:03:14.016Z,7.40
2018-11-20T03:06:21.637Z,7.33
2018-11-20T03:09:26.101Z,7.53
2018-11-20T03:12:33.716Z,9.60
2018-11-20T03:15:41.286Z,8.63
2018-11-20T03:18:48.896Z,6.90
2018-11-20T03:21:56.481Z,7.43
2018-11-20T03:25:04.100Z,8.93
2018-11-20T03:28:11.396Z,9.37
2018-11-20T03:31:20.400Z,8.87
2018-11-20T03:34:27.982Z,10.87
2018-11-20T03:37:35.290Z,9.60
2018-11-20T03:40:42.587Z,6.13
2018-11-20T03:43:49.884Z,6.17
2018-11-20T03:46:57.169Z,9.40
2018-11-20T03:50:04.462Z,11.50
2018-11-20T03:53:03.014Z,8.90
2018-11-20T03:56:10.593Z,8.57
2018-11-20T03:59:18.150Z,8.60
2018-11-20T04:02:25.696Z,10.37
2018-11-20T04:05:33.022Z,9.10
2018-11-20T04:08:33.707Z,9.33
2018-11-20T04:11:41.241Z,5.37
2018-11-20T04:14:48.803Z,9.43
2018-11-20T04:17:56.235Z,8.40
2018-11-20T04:21:03.554Z,10.00
2018-11-20T04:24:11.129Z,8.03
2018-11-20T04:27:09.736Z,11.70
2018-11-20T04:30:35.994Z,12.70
2018-11-20T04:34:05.049Z,10.93
2018-11-20T04:37:13.677Z,7.07
2018-11-20T04:40:21.259Z,9.33
2018-11-20T04:43:28.815Z,10.67
2018-11-20T04:46:36.113Z,10.27
2018-11-20T04:49:43.450Z,11.60
2018-11-20T04:52:50.735Z,13.90
2018-11-20T04:55:50.009Z,8.10
2018-11-20T04:58:57.531Z,8.47
2018-11-20T05:02:04.836Z,9.07
2018-11-20T05:05:12.419Z,10.17
2018-11-20T05:08:08.724Z,11.00
2018-11-20T05:11:16.052Z,12.60
2018-11-20T05:14:23.353Z,11.60
2018-11-20T05:17:30.911Z,12.43
2018-11-20T05:20:38.533Z,12.53
2018-11-20T05:23:45.858Z,13.10
2018-11-20T05:26:53.995Z,7.07
2018-11-20T05:30:01.546Z,10.23
2018-11-20T05:33:08.925Z,11.43
2018-11-20T05:36:16.229Z,9.60
2018-11-20T05:39:24.400Z,11.23
2018-11-20T05:42:31.703Z,12.13
2018-11-20T05:45:38.995Z,11.83
2018-11-20T05:48:46.560Z,11.67
2018-11-20T05:51:53.870Z,13.73
2018-11-20T05:55:01.763Z,10.03
2018-11-20T05:58:09.256Z,9.80
2018-11-20T06:01:16.591Z,10.87
2018-11-20T06:04:23.893Z,12.43
2018-11-20T06:07:31.262Z,10.10
2018-11-20T06:10:38.626Z,13.00
2018-11-20T06:13:45.971Z,11.00
2018-11-20T06:16:53.261Z,11.87
2018-11-20T06:20:00.556Z,8.50
2018-11-20T06:23:07.858Z,11.17
2018-11-20T06:26:15.175Z,10.50
2018-11-20T06:29:22.545Z,9.10
2018-11-20T06:32:29.785Z,9.83
2018-11-20T06:35:28.330Z,10.37
2018-11-20T06:38:36.541Z,9.70
2018-11-20T06:41:43.847Z,10.80
2018-11-20T06:44:48.254Z,8.87
2018-11-20T06:47:55.321Z,9.53
2018-11-20T06:51:02.987Z,10.30
2018-11-20T06:54:10.368Z,10.90
2018-11-20T06:57:17.721Z,11.80
2018-11-20T07:00:24.364Z,10.63
2018-11-20T07:03:31.731Z,10.87
2018-11-20T07:06:39.323Z,10.97
2018-11-20T07:09:46.909Z,13.80
2018-11-20T07:12:54.493Z,9.10
2018-11-20T07:16:02.106Z,9.50
2018-11-20T07:18:50.169Z,11.33
2018-11-20T07:21:57.462Z,7.90
2018-11-20T07:25:05.022Z,12.50
2018-11-20T07:28:06.824Z,11.63
2018-11-20T07:31:14.493Z,10.03
2018-11-20T07:34:21.940Z,14.70
2018-11-20T07:37:29.325Z,8.73
2018-11-20T07:40:36.559Z,10.87
2018-11-20T07:43:44.001Z,10.20
2018-11-20T07:50:11.817Z,12.10
2018-11-20T07:53:19.111Z,9.57
2018-11-20T07:56:26.752Z,9.53
2018-11-20T07:59:34.052Z,11.27
2018-11-20T08:02:41.346Z,12.43
2018-11-20T08:05:55.967Z,9.77
2018-11-20T08:09:03.552Z,13.10
2018-11-20T08:12:08.045Z,12.33
2018-11-20T08:15:15.382Z,8.50
2018-11-20T08:18:23.026Z,12.00
2018-11-20T08:21:30.848Z,15.07
2018-11-20T08:24:38.531Z,12.10
2018-11-20T08:27:37.689Z,12.60
2018-11-20T08:30:45.033Z,12.57
2018-11-20T08:33:52.644Z,11.97
2018-11-20T08:36:56.636Z,14.23
2018-11-20T08:40:03.970Z,13.50
2018-11-20T08:43:11.602Z,11.57
2018-11-20T08:46:18.963Z,8.30
2018-11-20T08:49:26.547Z,11.97
2018-11-20T08:52:33.854Z,11.40
2018-11-20T08:55:33.696Z,11.03
2018-11-20T08:58:41.011Z,12.90
2018-11-20T09:01:48.579Z,10.60
2018-11-20T09:04:55.887Z,12.13
2018-11-20T09:08:03.193Z,13.83
2018-11-20T09:10:51.841Z,11.50
2018-11-20T09:13:59.190Z,12.50
2018-11-20T09:17:06.506Z,12.37
2018-11-20T09:20:13.870Z,11.37
2018-11-20T09:23:21.151Z,6.80
2018-11-20T09:26:28.529Z,12.10
2018-11-20T09:29:36.178Z,12.33
2018-11-20T09:32:43.520Z,9.90
2018-11-20T09:35:48.198Z,6.30
2018-11-20T09:38:46.620Z,10.90
2018-11-20T09:41:53.924Z,12.70
2018-11-20T09:45:20.150Z,12.03
2018-11-20T09:48:27.466Z,10.80
2018-11-20T09:51:34.199Z,12.60
2018-11-20T09:54:41.754Z,12.07
2018-11-20T09:57:49.353Z,12.20
2018-11-20T10:00:56.612Z,13.37
2018-11-20T10:04:03.915Z,13.40
2018-11-20T10:07:11.527Z,5.03
2018-11-20T10:10:18.764Z,12.00
2018-11-20T10:13:09.785Z,13.87
2018-11-20T10:16:09.361Z,12.67
2018-11-20T10:19:08.829Z,12.83
2018-11-20T10:24:51.181Z,12.60
2018-11-20T10:27:50.622Z,14.80
2018-11-20T10:30:48.246Z,12.60
2018-11-20T10:33:47.722Z,11.93
2018-11-20T10:36:47.211Z,13.40
2018-11-20T10:39:46.566Z,12.13
2018-11-20T10:42:47.506Z,13.23
2018-11-20T10:45:47.669Z,12.17
2018-11-20T10:48:52.999Z,10.60
2018-11-20T10:51:45.464Z,12.93
2018-11-20T10:54:47.970Z,11.07
2018-11-20T10:57:47.454Z,12.40
2018-11-20T11:00:47.138Z,12.40
2018-11-20T11:03:46.967Z,11.30
2018-11-20T11:06:49.462Z,13.40
2018-11-20T11:09:49.028Z,12.47
2018-11-20T11:12:48.797Z,12.77
2018-11-20T11:15:48.125Z,15.20
2018-11-20T11:18:47.872Z,12.03
2018-11-20T11:21:47.433Z,10.60
2018-11-20T11:24:46.889Z,14.10
2018-11-20T11:27:52.398Z,12.27
2018-11-20T11:30:49.405Z,12.20
2018-11-20T11:33:52.167Z,12.33
2018-11-20T11:36:42.591Z,10.77
2018-11-20T11:39:44.956Z,13.60
2018-11-20T11:42:44.894Z,12.77
2018-11-20T11:45:44.759Z,8.97
2018-11-20T11:48:44.192Z,14.43
2018-11-20T11:51:43.761Z,12.40
2018-11-20T11:54:43.829Z,12.67
2018-11-20T11:57:49.266Z,10.47
2018-11-20T12:00:48.846Z,10.30
2018-11-20T12:03:48.515Z,11.10
2018-11-20T12:06:48.395Z,8.30
2018-11-20T12:09:48.180Z,11.67
2018-11-20T12:12:47.841Z,7.50
2018-11-20T12:15:47.486Z,9.03
2018-11-20T12:19:39.339Z,11.07
2018-11-20T12:22:39.360Z,10.10
2018-11-20T12:25:30.246Z,10.00
2018-11-20T12:28:30.005Z,11.13
2018-11-20T12:31:35.703Z,12.20
2018-11-20T12:34:35.591Z,12.93
2018-11-20T12:37:30.119Z,13.30
2018-11-20T12:40:29.520Z,8.37
2018-11-20T12:43:24.289Z,14.13
2018-11-20T12:46:17.737Z,14.73
2018-11-20T12:49:19.064Z,8.70
2018-11-20T12:52:17.370Z,11.93
2018-11-20T12:55:19.777Z,11.73
2018-11-20T12:58:19.148Z,10.43
2018-11-20T13:01:18.566Z,10.00
2018-11-20T13:04:24.301Z,11.00
2018-11-20T13:07:28.998Z,11.70
2018-11-20T13:10:21.455Z,8.23
2018-11-20T13:13:21.681Z,12.47
2018-11-20T13:16:21.053Z,11.60
2018-11-20T13:19:21.317Z,13.37
2018-11-20T13:22:21.499Z,9.17
2018-11-20T13:25:27.328Z,11.13
2018-11-20T13:28:25.234Z,11.40
2018-11-20T13:31:24.676Z,11.67
2018-11-20T13:34:20.891Z,11.20
2018-11-20T13:37:25.163Z,8.00
2018-11-20T13:40:25.448Z,12.87
2018-11-20T13:43:19.622Z,11.07
2018-11-20T13:46:19.153Z,11.87
2018-11-20T13:49:19.082Z,11.83
2018-11-20T13:52:11.988Z,11.30
2018-11-20T13:55:14.143Z,11.33
2018-11-20T13:58:14.270Z,11.60
2018-11-20T14:01:14.056Z,6.37
2018-11-20T14:04:10.866Z,9.50
2018-11-20T14:07:10.246Z,11.57
2018-11-20T14:10:16.410Z,12.90
2018-11-20T14:13:16.375Z,10.13
2018-11-20T14:16:16.318Z,12.43
2018-11-20T14:19:18.444Z,14.10
2018-11-20T14:22:16.043Z,11.37
2018-11-20T14:25:15.759Z,11.83
2018-11-20T14:28:15.259Z,7.77
2018-11-20T14:31:13.488Z,11.40
2018-11-20T14:34:13.290Z,8.47
2018-11-20T14:37:03.955Z,10.37
2018-11-20T14:39:58.616Z,13.10
2018-11-20T14:48:29.554Z,11.67
2018-11-20T14:51:28.886Z,13.33
2018-11-20T14:54:28.772Z,12.70
2018-11-20T14:57:28.826Z,11.43
2018-11-20T15:00:23.597Z,11.17
2018-11-20T15:03:23.269Z,11.93
2018-11-20T15:06:24.029Z,7.67
2018-11-20T15:09:24.277Z,11.40
2018-11-20T15:12:23.653Z,11.77
2018-11-20T15:15:23.749Z,12.23
2018-11-20T15:18:23.900Z,13.40
2018-11-20T15:21:20.940Z,4.50
2018-11-20T15:24:20.573Z,11.33
2018-11-20T15:27:20.497Z,12.23
2018-11-20T15:30:20.522Z,11.40
2018-11-20T15:33:19.956Z,11.67
2018-11-20T15:36:19.975Z,13.50
2018-11-20T15:39:07.865Z,13.90
2018-11-20T15:42:14.800Z,13.57
2018-11-20T15:45:21.708Z,11.47
2018-11-20T15:48:28.908Z,13.23
2018-11-20T15:51:36.072Z,14.80
2018-11-20T15:54:42.973Z,14.03
2018-11-20T15:57:50.138Z,12.00
2018-11-20T16:00:57.144Z,9.40
2018-11-20T16:04:04.033Z,11.17
2018-11-20T16:07:10.925Z,12.57
2018-11-20T16:10:17.821Z,13.53
2018-11-20T16:13:24.727Z,12.20
2018-11-20T16:16:31.653Z,12.60
2018-11-20T16:19:38.655Z,13.80
2018-11-20T16:22:45.816Z,15.40
2018-11-20T16:25:52.694Z,11.10
2018-11-20T16:28:59.697Z,15.57
2018-11-20T16:32:07.443Z,9.43
2018-11-20T16:35:15.285Z,13.20
2018-11-20T16:38:13.891Z,12.20
2018-11-20T16:41:21.181Z,14.10
2018-11-20T16:44:28.126Z,15.40
2018-11-20T16:47:34.988Z,13.07
2018-11-20T16:50:42.011Z,13.60
2018-11-20T16:53:48.951Z,12.63
2018-11-20T16:56:55.899Z,12.00
2018-11-20T17:00:03.074Z,13.70
2018-11-20T17:03:09.995Z,11.30
2018-11-20T17:06:14.231Z,13.60
2018-11-20T17:09:21.161Z,14.07
2018-11-20T17:12:28.980Z,13.83
2018-11-20T17:15:36.209Z,13.17
2018-11-20T17:18:43.275Z,13.43
2018-11-20T17:21:50.081Z,14.00
2018-11-20T17:24:57.265Z,12.80
2018-11-20T17:28:04.433Z,14.70
2018-11-20T17:31:11.484Z,14.30
2018-11-20T17:34:18.674Z,14.30
2018-11-20T17:37:25.605Z,15.77
2018-11-20T17:40:32.831Z,15.97
2018-11-20T17:43:20.349Z,14.83
2018-11-20T17:46:27.274Z,14.00
2018-11-20T17:49:34.323Z,12.97
2018-11-20T17:52:41.238Z,14.40
2018-11-20T17:55:29.080Z,15.53
2018-11-20T17:58:35.983Z,12.60
2018-11-20T18:05:00.732Z,14.53
2018-11-20T18:08:07.675Z,11.37
2018-11-20T18:11:15.586Z,13.43
2018-11-20T18:14:22.789Z,12.43
2018-11-20T18:17:29.688Z,12.20
2018-11-20T18:20:36.966Z,13.30
2018-11-20T18:23:32.532Z,13.00
2018-11-20T18:26:20.079Z,13.00
2018-11-20T18:29:29.772Z,12.57
2018-11-20T18:32:36.690Z,12.60
2018-11-20T18:35:43.612Z,12.90
2018-11-20T18:38:50.840Z,12.70
2018-11-20T18:41:58.024Z,12.23
2018-11-20T18:45:06.339Z,12.50
2018-11-20T18:48:13.840Z,11.57
2018-11-20T18:51:22.208Z,13.50
2018-11-20T18:54:30.186Z,12.87
2018-11-20T18:57:40.754Z,13.97
2018-11-20T19:00:50.783Z,12.40
2018-11-20T19:04:02.934Z,13.10
2018-11-20T19:07:11.554Z,15.90
2018-11-20T19:10:18.804Z,12.70
2018-11-20T19:13:26.083Z,12.30
2018-11-20T19:16:14.261Z,12.40
2018-11-20T19:19:21.526Z,9.20
2018-11-20T19:22:28.432Z,9.10
2018-11-20T19:25:35.339Z,12.33
2018-11-20T19:28:42.515Z,11.43
2018-11-20T19:31:53.289Z,10.70
2018-11-20T19:34:57.118Z,11.30
2018-11-20T19:37:44.858Z,11.17
2018-11-20T19:40:51.850Z,11.50
2018-11-20T19:43:59.022Z,10.77
2018-11-20T19:47:06.194Z,10.00
2018-11-20T19:50:13.396Z,10.60
2018-11-20T19:53:20.579Z,11.27
2018-11-20T19:56:27.475Z,6.33
2018-11-20T19:59:27.872Z,7.90
2018-11-20T20:02:36.642Z,6.73
2018-11-20T20:05:41.966Z,8.87
2018-11-20T20:08:48.921Z,7.60
2018-11-20T20:11:55.823Z,10.03
2018-11-20T20:15:02.772Z,7.17
2018-11-20T20:21:08.539Z,9.40
2018-11-20T20:24:16.134Z,8.83
2018-11-20T20:27:23.132Z,8.33
2018-11-20T20:30:30.363Z,7.80
2018-11-20T20:33:37.332Z,8.67
2018-11-20T20:36:44.233Z,8.80
2018-11-20T20:39:51.185Z,7.53
2018-11-20T20:42:58.065Z,7.70
2018-11-20T20:46:05.059Z,8.57
2018-11-20T20:49:12.211Z,10.00
2018-11-20T20:52:19.405Z,7.77
2018-11-20T20:55:26.738Z,7.97
2018-11-20T20:58:34.008Z,9.43
2018-11-20T21:01:41.036Z,8.50
2018-11-20T21:04:48.328Z,6.80
2018-11-20T21:07:55.538Z,8.50
2018-11-20T21:11:02.436Z,9.53
2018-11-20T21:14:09.617Z,6.30
2018-11-20T21:17:16.969Z,8.90
2018-11-20T21:20:24.189Z,6.13
2018-11-20T21:23:31.424Z,9.60
2018-11-20T21:26:38.303Z,8.63
2018-11-20T21:29:26.204Z,9.77
2018-11-20T21:32:33.168Z,5.20
2018-11-20T21:35:40.122Z,8.00
2018-11-20T21:38:27.957Z,8.90
2018-11-20T21:41:34.853Z,7.67
2018-11-20T21:44:42.028Z,8.50
2018-11-20T21:47:49.048Z,9.07
2018-11-20T21:50:56.006Z,5.40
2018-11-20T21:54:02.957Z,10.67
2018-11-20T21:57:09.899Z,9.83
2018-11-20T22:00:36.162Z,8.77
2018-11-20T22:03:43.050Z,8.50
2018-11-20T22:06:49.980Z,7.70
2018-11-20T22:09:56.867Z,9.17
2018-11-20T22:13:03.806Z,9.63
2018-11-20T22:16:10.722Z,10.07
2018-11-20T22:19:17.645Z,7.77
2018-11-20T22:22:24.816Z,8.03
2018-11-20T22:25:27.793Z,9.43
2018-11-20T22:28:35.019Z,9.73
2018-11-20T22:31:42.053Z,9.83
2018-11-20T22:34:48.920Z,9.83
2018-11-20T22:37:56.093Z,8.50
2018-11-20T22:41:02.993Z,10.47
2018-11-20T22:44:09.888Z,8.40
2018-11-20T22:47:16.797Z,9.37
2018-11-20T22:50:24.419Z,9.30
2018-11-20T22:53:31.331Z,8.07
2018-11-20T22:56:35.112Z,6.83
2018-11-20T22:59:39.695Z,9.53
2018-11-20T23:02:47.023Z,13.37
2018-11-20T23:05:53.349Z,10.30
2018-11-20T23:08:41.146Z,8.10
2018-11-20T23:11:10.303Z,5.40
2018-11-20T23:13:58.072Z,5.37
2018-11-20T23:16:46.505Z,10.30
2018-11-20T23:19:34.557Z,9.50
2018-11-20T23:22:22.927Z,10.97
2018-11-20T23:25:12.687Z,4.80
2018-11-20T23:28:00.826Z,11.23
2018-11-20T23:30:48.625Z,10.60
2018-11-20T23:33:36.673Z,9.17
2018-11-20T23:36:24.735Z,9.07
2018-11-20T23:39:12.816Z,9.03
2018-11-20T23:42:00.812Z,7.53
2018-11-20T23:44:48.879Z,9.20
2018-11-20T23:47:36.973Z,10.80
2018-11-20T23:50:25.070Z,7.63
2018-11-20T23:53:13.456Z,11.90
2018-11-20T23:56:01.500Z,5.87
2018-11-20T23:58:49.521Z,7.80
